createdAt,value
2019-02-09T00:03:39.446Z,98
2019-02-09T00:09:03.374Z,98
2019-02-09T00:14:31.459Z,98
2019-02-09T00:19:59.332Z,98
2019-02-09T00:25:27.273Z,98
2019-02-09T00:30:55.227Z,98
2019-02-09T00:36:24.217Z,98
2019-02-09T00:41:52.291Z,98
2019-02-09T00:47:21.287Z,98
2019-02-09T00:52:50.344Z,98
2019-02-09T00:58:19.358Z,98
2019-02-09T01:03:47.226Z,98
2019-02-09T01:09:16.206Z,98
2019-02-09T01:14:44.146Z,98
2019-02-09T01:20:12.445Z,98
2019-02-09T01:25:40.324Z,99
2019-02-09T01:31:09.197Z,99
2019-02-09T01:36:37.124Z,99
2019-02-09T01:42:07.071Z,99
2019-02-09T01:47:34.055Z,99
2019-02-09T01:53:02.053Z,99
2019-02-09T01:58:30.476Z,99
2019-02-09T02:04:02.364Z,99
2019-02-09T02:09:28.202Z,99
2019-02-09T02:14:57.122Z,99
2019-02-09T02:20:25.086Z,99
2019-02-09T02:25:53.059Z,99
2019-02-09T02:31:22.027Z,99
2019-02-09T02:36:50.098Z,99
2019-02-09T02:42:18.071Z,99
2019-02-09T02:47:46.204Z,99
2019-02-09T02:53:16.674Z,99
2019-02-09T02:58:43.130Z,99
2019-02-09T03:04:11.103Z,99
2019-02-09T03:09:40.126Z,99
2019-02-09T03:15:08.053Z,99
2019-02-09T03:20:36.356Z,99
2019-02-09T03:26:05.034Z,99
2019-02-09T03:31:34.339Z,99
2019-02-09T03:37:03.081Z,99
2019-02-09T03:42:31.105Z,99
2019-02-09T03:48:00.372Z,99
2019-02-09T03:53:28.097Z,99
2019-02-09T03:58:56.181Z,99
2019-02-09T04:04:24.302Z,99
2019-02-09T04:09:52.365Z,99
2019-02-09T04:15:20.557Z,99
2019-02-09T04:20:48.317Z,98
2019-02-09T04:26:16.396Z,98
2019-02-09T04:31:45.282Z,98
2019-02-09T04:37:13.267Z,98
2019-02-09T04:42:42.485Z,98
2019-02-09T04:48:11.314Z,98
2019-02-09T04:53:39.317Z,98
2019-02-09T04:59:07.382Z,98
2019-02-09T05:04:36.395Z,98
2019-02-09T05:10:04.437Z,98
2019-02-09T05:15:32.639Z,98
2019-02-09T05:21:00.464Z,98
2019-02-09T05:26:29.481Z,98
2019-02-09T05:31:57.719Z,98
2019-02-09T05:37:26.555Z,98
2019-02-09T05:42:54.553Z,98
2019-02-09T05:48:23.880Z,98
2019-02-09T05:53:51.540Z,98
2019-02-09T05:59:19.609Z,98
2019-02-09T06:04:47.604Z,98
2019-02-09T06:10:15.566Z,98
2019-02-09T06:15:44.492Z,98
2019-02-09T06:21:13.495Z,98
2019-02-09T06:26:41.495Z,98
2019-02-09T06:32:09.429Z,98
2019-02-09T06:37:38.953Z,98
2019-02-09T06:43:06.394Z,98
2019-02-09T06:48:35.494Z,98
2019-02-09T06:54:03.366Z,98
2019-02-09T06:59:32.402Z,98
2019-02-09T07:05:01.443Z,98
2019-02-09T07:10:29.436Z,98
2019-02-09T07:15:57.406Z,98
2019-02-09T07:21:26.401Z,98
2019-02-09T07:26:55.400Z,98
2019-02-09T07:32:23.218Z,98
2019-02-09T07:37:51.157Z,98
2019-02-09T07:43:20.474Z,97
2019-02-09T07:48:48.140Z,97
2019-02-09T07:54:16.115Z,97
2019-02-09T07:59:45.049Z,97
2019-02-09T08:05:14.107Z,97
2019-02-09T08:10:42.231Z,97
2019-02-09T08:16:10.063Z,97
2019-02-09T08:21:37.900Z,97
2019-02-09T08:27:05.890Z,97
2019-02-09T08:32:36.898Z,97
2019-02-09T08:38:01.862Z,97
2019-02-09T08:43:29.772Z,97
2019-02-09T08:48:58.755Z,97
2019-02-09T08:54:27.859Z,97
2019-02-09T08:59:55.824Z,97
2019-02-09T09:05:23.689Z,97
2019-02-09T09:10:52.042Z,97
2019-02-09T09:16:20.668Z,97
2019-02-09T09:21:48.667Z,97
2019-02-09T09:27:17.643Z,96
2019-02-09T09:32:45.595Z,96
2019-02-09T09:38:13.802Z,96
2019-02-09T09:43:41.694Z,96
2019-02-09T09:49:10.641Z,96
2019-02-09T09:54:38.879Z,96
2019-02-09T10:00:07.764Z,95
2019-02-09T10:05:35.725Z,95
2019-02-09T10:11:03.779Z,95
2019-02-09T10:16:31.723Z,95
2019-02-09T10:21:59.840Z,95
2019-02-09T10:27:28.784Z,94
2019-02-09T10:32:56.815Z,94
2019-02-09T10:38:25.853Z,94
2019-02-09T10:43:53.934Z,94
2019-02-09T10:49:22.028Z,93
2019-02-09T10:54:50.222Z,94
2019-02-09T11:00:19.208Z,93
2019-02-09T11:05:47.126Z,93
2019-02-09T11:11:16.157Z,93
2019-02-09T11:16:44.208Z,93
2019-02-09T11:22:13.400Z,92
2019-02-09T11:27:41.228Z,92
2019-02-09T11:33:09.460Z,92
2019-02-09T11:38:37.373Z,92
2019-02-09T11:44:06.356Z,92
2019-02-09T11:49:34.389Z,92
2019-02-09T11:55:03.369Z,92
2019-02-09T12:00:32.368Z,92
2019-02-09T12:06:00.430Z,92
2019-02-09T12:11:29.425Z,92
2019-02-09T12:16:58.305Z,92
2019-02-09T12:22:27.476Z,92
2019-02-09T12:27:56.313Z,92
2019-02-09T12:33:25.317Z,92
2019-02-09T12:38:54.256Z,92
2019-02-09T12:44:23.293Z,93
2019-02-09T12:49:52.142Z,93
2019-02-09T12:55:20.466Z,93
2019-02-09T13:00:48.224Z,93
2019-02-09T13:06:17.002Z,93
2019-02-09T13:11:44.906Z,93
2019-02-09T13:17:13.851Z,93
2019-02-09T13:22:42.503Z,93
2019-02-09T13:28:09.719Z,93
2019-02-09T13:33:38.878Z,93
2019-02-09T13:39:05.600Z,93
2019-02-09T13:44:33.562Z,93
2019-02-09T13:50:02.670Z,93
2019-02-09T13:55:31.442Z,93
2019-02-09T14:00:59.254Z,93
2019-02-09T14:06:27.244Z,93
2019-02-09T14:11:55.132Z,93
2019-02-09T14:17:23.018Z,93
2019-02-09T14:22:51.932Z,93
2019-02-09T14:28:20.966Z,93
2019-02-09T14:33:54.509Z,94
2019-02-09T14:39:17.746Z,93
2019-02-09T14:44:46.701Z,93
2019-02-09T14:50:15.555Z,94
2019-02-09T14:55:44.448Z,93
2019-02-09T15:01:13.389Z,93
2019-02-09T15:06:42.301Z,93
2019-02-09T15:12:10.407Z,93
2019-02-09T15:17:39.148Z,93
2019-02-09T15:23:07.117Z,93
2019-02-09T15:28:36.013Z,93
2019-02-09T15:34:10.050Z,93
2019-02-09T15:39:33.890Z,93
2019-02-09T15:45:01.943Z,93
2019-02-09T15:50:29.724Z,93
2019-02-09T15:55:57.673Z,93
2019-02-09T16:01:26.566Z,93
2019-02-09T16:06:54.505Z,93
2019-02-09T16:12:22.419Z,93
2019-02-09T16:17:51.319Z,93
2019-02-09T16:23:20.323Z,93
2019-02-09T16:28:49.277Z,93
2019-02-09T16:34:25.141Z,93
2019-02-09T16:39:46.118Z,93
2019-02-09T16:45:15.059Z,93
2019-02-09T16:50:44.016Z,93
2019-02-09T16:56:12.904Z,93
2019-02-09T17:01:41.845Z,93
2019-02-09T17:07:10.761Z,93
2019-02-09T17:12:38.687Z,92
2019-02-09T17:18:07.572Z,92
2019-02-09T17:23:36.693Z,92
2019-02-09T17:29:04.478Z,92
2019-02-09T17:34:32.370Z,92
2019-02-09T17:40:01.390Z,92
2019-02-09T17:45:30.397Z,92
2019-02-09T17:50:58.357Z,92
2019-02-09T17:56:26.103Z,92
2019-02-09T18:01:54.074Z,92
2019-02-09T18:07:23.203Z,92
2019-02-09T18:12:52.557Z,92
2019-02-09T18:18:20.997Z,92
2019-02-09T18:23:50.072Z,92
2019-02-09T18:29:18.981Z,92
2019-02-09T18:34:46.746Z,91
2019-02-09T18:40:14.870Z,91
2019-02-09T18:45:43.652Z,91
2019-02-09T18:51:12.668Z,91
2019-02-09T18:56:41.603Z,91
2019-02-09T19:02:10.536Z,91
2019-02-09T19:07:38.484Z,91
2019-02-09T19:13:06.424Z,91
2019-02-09T19:18:35.482Z,91
2019-02-09T19:24:04.382Z,91
2019-02-09T19:29:33.462Z,91
2019-02-09T19:35:02.372Z,91
2019-02-09T19:40:30.557Z,91
2019-02-09T19:45:58.256Z,91
2019-02-09T19:51:27.139Z,91
2019-02-09T19:56:55.117Z,91
2019-02-09T20:02:24.050Z,91
2019-02-09T20:07:53.021Z,91
2019-02-09T20:13:21.964Z,91
2019-02-09T20:18:49.888Z,91
2019-02-09T20:24:18.802Z,91
2019-02-09T20:29:46.751Z,91
2019-02-09T20:35:14.780Z,91
2019-02-09T20:40:42.651Z,90
2019-02-09T20:46:10.721Z,90
2019-02-09T20:51:39.690Z,90
2019-02-09T20:57:07.567Z,90
2019-02-09T21:02:35.403Z,90
2019-02-09T21:08:03.543Z,90
2019-02-09T21:13:31.301Z,90
2019-02-09T21:18:59.183Z,90
2019-02-09T21:24:27.224Z,90
2019-02-09T21:29:55.985Z,90
2019-02-09T21:35:23.926Z,90
2019-02-09T21:40:53.063Z,90
2019-02-09T21:46:20.834Z,90
2019-02-09T21:51:48.662Z,90
2019-02-09T21:57:16.518Z,90
2019-02-09T22:02:45.434Z,90
2019-02-09T22:08:19.184Z,90
2019-02-09T22:13:42.389Z,90
2019-02-09T22:19:11.094Z,90
2019-02-09T22:24:38.980Z,90
2019-02-09T22:30:06.867Z,90
2019-02-09T22:35:35.922Z,90
2019-02-09T22:41:04.671Z,90
2019-02-09T22:46:33.574Z,90
2019-02-09T22:52:02.530Z,90
2019-02-09T22:57:30.404Z,90
2019-02-09T23:02:59.307Z,90
2019-02-09T23:08:27.282Z,90
2019-02-09T23:13:55.061Z,90
2019-02-09T23:19:23.001Z,90
2019-02-09T23:24:50.856Z,90
2019-02-09T23:30:18.967Z,90
2019-02-09T23:35:46.615Z,90
2019-02-09T23:41:15.511Z,90
2019-02-09T23:46:43.359Z,90
2019-02-09T23:52:11.317Z,90
2019-02-09T23:57:40.350Z,90
